Terminal Aerodrome Forecast
Issued by NWS

Home | Current Version | Previous Version | Text Only | Print | Product List | Glossary Off
Versions: 1 2 3 4 5 6 7 8 9 10 11 12 13 14 15

000
FTUS42 KMHX 191100
TAFPGV
TAF
KPGV 191137Z 1912/2012 00000KT 2SM BR SCT080
      TEMPO 1912/1913 P6SM NSW
     FM191300 02004KT P6SM SCT250
     FM200900 04002KT P6SM BKN080
      AMD LTD TO CLD VIS AND WIND=

USA.gov is the U.S. government's official web portal to all federal, state and local government web resources and services.